Arlington, TX

6:36 PM CST on February 09, 2016 (GMT -0600)
Oak Run | | Change Station
CLOSE
Current Station
Personal Weather Station
Location: Mansfield, TX
Elevation: 682 ft
Nearby Weather Stations

Elev 682 ft 32.62 °N, 97.15 °W | Updated 25 seconds ago

Clear
Clear
55.8 °F
Feels Like 55.8 °F
N
2.2
Wind Variable Wind from North
Gusts 3.8 mph

Today
High -- | Low -- °F
--% Chance of Precip.
Yesterday
High -- | Low -- °F
Precip. -- in
Pressure 30.25 in
Visibility 10.0 miles
Clouds Clear
Dew Point 25 °F
Humidity 30%
Rainfall 0.00 in
Snow Depth Not available.
7:17 AM 6:08 PM
Waxing Crescent, 3% visible
METAR KGKY 092353Z 33013KT 10SM CLR 16/M04 A3025 RMK AO2 SLP243 T01611039 10189 20150 53016
Pressure 30.25 in
Visibility 10.0 miles
Clouds Clear
Dew Point 25 °F
Humidity 30%
Rainfall 0.00 in
Snow Depth Not available.
7:17 AM 6:08 PM
Waxing Crescent, 3% visible
METAR KGKY 092353Z 33013KT 10SM CLR 16/M04 A3025 RMK AO2 SLP243 T01611039 10189 20150 53016

10-Day Weather Forecast

Almanac

Astronomy

Feb. 09, 2016 Rise Set
Actual Time
Civil Twilight
Nautical Twilight
Astronomical Twilight
Moon
Length of Visible Light
Length of Day
Tomorrow will be .
, % of the Moon is Illuminated

Today's Extremes

State Highs State Lows

Community

WunderPhotos

Upload Photos

1,891,751 photos uploaded!

WunderBlog® & News

Nearby

Air Quality

  Air Quality AQ Index Pollutant
Not available.

Snow Depth

Station Depth Elevation

Earthquake Activity

City Distance Mag. Time & Date
Minimum magnitude displayed is 2.5.

Coastal Water Temperatures

Place Temperature

Stations

Nearby Weather Stations

Station Location Temp. Windchill Dew Point Humidity Wind Precip. Elev Updated Type
                   

Watches & Warnings

There are currently no watches in effect.